Time;durP1;ratioP1;P1;durP2;ratioP2;P2;SDS_P1;SDS_P2;PMS_P1;PMS_P2;Temp;Humidity;BMP_temperature;BMP_pressure;BME280_temperature;BME280_humidity;BME280_pressure;Samples;Min_cycle;Max_cycle;Signal;HPM_P1;HPM_P2
2021/08/24 00:01:35;;;;;;;13.77;5.30;;;;;;;14.62;100.00;98417.00;5016826;28;20049;-78
2021/08/24 00:04:02;;;;;;;11.02;5.40;;;;;;;14.64;100.00;98414.75;5034419;28;20049;-78
2021/08/24 00:06:29;;;;;;;10.60;5.22;;;;;;;14.70;100.00;98424.38;5034407;28;20060;-78
2021/08/24 00:08:55;;;;;;;12.65;5.38;;;;;;;14.51;100.00;98427.44;5034562;28;20045;-78
2021/08/24 00:11:24;;;;;;;11.60;5.50;;;;;;;14.53;100.00;98425.19;5034302;28;20117;-78
2021/08/24 00:13:51;;;;;;;9.48;5.30;;;;;;;14.44;100.00;98412.69;5034464;28;20057;-78
2021/08/24 00:16:18;;;;;;;14.40;5.25;;;;;;;14.53;100.00;98425.19;5032546;28;20566;-78
2021/08/24 00:18:45;;;;;;;12.10;5.07;;;;;;;14.54;100.00;98415.09;5032855;28;20481;-78
2021/08/24 00:21:12;;;;;;;8.20;4.25;;;;;;;14.63;100.00;98415.91;5014126;28;20045;-78
2021/08/24 00:23:38;;;;;;;11.90;5.05;;;;;;;14.60;100.00;98416.53;5016240;28;20081;-78
2021/08/24 00:26:05;;;;;;;14.30;4.40;;;;;;;14.60;100.00;98408.34;5034495;28;20049;-78
2021/08/24 00:28:32;;;;;;;11.25;5.00;;;;;;;14.52;100.00;98412.69;5015850;28;20107;-78
2021/08/24 00:30:58;;;;;;;13.77;5.28;;;;;;;14.44;100.00;98416.22;5015722;28;20116;-79
2021/08/24 00:33:25;;;;;;;9.23;4.78;;;;;;;14.45;100.00;98417.84;5037928;28;20076;-79
2021/08/24 00:35:52;;;;;;;12.38;4.85;;;;;;;14.40;100.00;98409.78;5020618;28;20113;-78
2021/08/24 00:38:22;;;;;;;14.23;5.63;;;;;;;14.44;100.00;98413.50;5015185;28;20057;-79
2021/08/24 00:40:54;;;;;;;10.18;5.20;;;;;;;14.30;100.00;98412.81;5010266;28;20472;-78
2021/08/24 00:43:21;;;;;;;13.82;5.43;;;;;;;14.27;100.00;98406.06;5034595;28;20083;-78
2021/08/24 00:45:52;;;;;;;11.70;5.03;;;;;;;14.45;100.00;98411.56;5031150;28;20045;-78
2021/08/24 00:48:26;;;;;;;10.77;5.00;;;;;;;14.44;100.00;98408.03;5031189;28;20041;-78
2021/08/24 00:50:55;;;;;;;17.48;5.35;;;;;;;14.59;100.00;98412.19;5032894;28;20042;-77
2021/08/24 00:53:24;;;;;;;10.98;4.72;;;;;;;14.49;100.00;98409.81;5032739;28;20056;-77
2021/08/24 00:55:54;;;;;;;12.60;5.00;;;;;;;14.44;100.00;98407.22;5036913;28;20045;-77
2021/08/24 00:58:21;;;;;;;10.85;5.07;;;;;;;14.54;100.00;98407.72;5036986;28;20041;-79
2021/08/24 01:00:48;;;;;;;8.75;4.88;;;;;;;14.48;100.00;98417.16;5036421;28;20053;-79
2021/08/24 01:03:18;;;;;;;11.43;5.00;;;;;;;14.37;100.00;98421.34;5035979;28;20061;-78
2021/08/24 01:05:51;;;;;;;14.65;5.47;;;;;;;14.24;100.00;98419.53;5036838;28;20047;-79
2021/08/24 01:08:29;;;;;;;10.93;4.97;;;;;;;14.31;100.00;98425.34;5035345;28;20049;-78
2021/08/24 01:11:03;;;;;;;11.20;5.40;;;;;;;14.36;100.00;98417.00;5018543;28;20082;-77
2021/08/24 01:13:46;;;;;;;12.45;5.00;;;;;;;14.41;100.00;98416.03;5016202;28;20050;-79
2021/08/24 01:16:40;;;;;;;15.40;5.15;;;;;;;14.23;100.00;98420.66;5000456;28;20086;-78
2021/08/24 01:19:10;;;;;;;11.10;5.10;;;;;;;14.21;100.00;98422.91;5034610;28;20509;-79
2021/08/24 01:22:13;;;;;;;11.88;5.15;;;;;;;14.23;100.00;98418.75;5033851;28;20087;-80
2021/08/24 01:24:52;;;;;;;9.32;5.10;;;;;;;14.24;100.00;98428.53;5030765;28;20057;-79
2021/08/24 01:27:48;;;;;;;12.38;4.82;;;;;;;14.12;100.00;98422.06;5027071;28;20041;-80
2021/08/24 01:30:22;;;;;;;;;;;;;;;14.11;100.00;98434.91;5002036;28;20042;-81
2021/08/24 01:32:56;;;;;;;14.93;4.85;;;;;;;14.18;100.00;98431.72;5016243;28;19931;-80
2021/08/24 01:35:23;;;;;;;13.10;5.28;;;;;;;14.29;100.00;98433.00;5014951;28;20041;-78
2021/08/24 01:38:18;;;;;;;13.82;5.40;;;;;;;14.23;100.00;98435.09;5018860;28;20294;-79
2021/08/24 01:40:58;;;;;;;10.77;4.70;;;;;;;14.23;100.00;98431.56;5026588;28;20030;-79
2021/08/24 01:43:39;;;;;;;11.43;5.15;;;;;;;14.22;100.00;98421.78;5013765;28;20052;-79
2021/08/24 01:46:25;;;;;;;11.13;4.70;;;;;;;14.31;100.00;98428.06;5030042;28;20140;-80
2021/08/24 01:48:55;;;;;;;15.23;5.35;;;;;;;14.26;100.00;98431.72;5038687;28;20505;-79
2021/08/24 01:51:28;;;;;;;11.77;5.10;;;;;;;14.22;100.00;98438.13;5038467;28;20037;-79
2021/08/24 01:54:01;;;;;;;13.77;5.72;;;;;;;14.26;100.00;98436.38;5038458;28;20045;-79
2021/08/24 01:56:35;;;;;;;14.77;5.60;;;;;;;14.27;100.00;98437.97;5021364;28;20674;-80
2021/08/24 01:59:09;;;;;;;11.82;5.63;;;;;;;14.23;100.00;98450.63;5038819;28;20053;-79
2021/08/24 02:01:47;;;;;;;14.90;6.15;;;;;;;14.13;100.00;98442.75;5038298;28;20042;-78
2021/08/24 02:04:24;;;;;;;16.80;5.78;;;;;;;14.30;100.00;98440.03;5021061;28;20128;-78
2021/08/24 02:06:52;;;;;;;12.40;6.00;;;;;;;14.35;100.00;98440.72;5033172;28;20628;-79
2021/08/24 02:09:33;;;;;;;12.07;6.43;;;;;;;14.34;100.00;98432.88;5031537;28;20093;-78
2021/08/24 02:12:00;;;;;;;13.50;6.25;;;;;;;14.46;100.00;98443.94;5038298;28;20041;-78
2021/08/24 02:14:28;;;;;;;18.77;6.63;;;;;;;14.29;100.00;98442.00;5028326;28;20026;-78
2021/08/24 02:16:59;;;;;;;21.00;6.70;;;;;;;14.30;100.00;98440.03;5054731;28;20053;-77
2021/08/24 02:19:36;;;;;;;15.82;6.60;;;;;;;14.47;100.00;98447.47;5037612;28;20030;-77
2021/08/24 02:22:12;;;;;;;19.25;7.00;;;;;;;14.41;100.00;98446.00;5055576;28;20042;-76
2021/08/24 02:24:43;;;;;;;20.48;6.97;;;;;;;14.42;100.00;98456.59;5037705;28;20038;-76
2021/08/24 02:27:18;;;;;;;15.05;6.60;;;;;;;14.37;100.00;98454.03;5021825;28;20121;-76
2021/08/24 02:29:44;;;;;;;19.48;7.18;;;;;;;14.26;100.00;98452.72;5049141;28;20045;-78
2021/08/24 02:32:16;;;;;;;12.18;6.55;;;;;;;14.26;100.00;98445.34;5038466;28;20037;-79
2021/08/24 02:34:57;;;;;;;15.10;6.45;;;;;;;14.33;100.00;98455.78;5025052;28;20045;-78
2021/08/24 02:37:36;;;;;;;13.90;6.43;;;;;;;14.32;100.00;98448.75;5038604;28;20129;-79
2021/08/24 02:40:29;;;;;;;17.45;6.93;;;;;;;14.33;100.00;98455.78;5021453;28;20041;-80
2021/08/24 02:43:15;;;;;;;22.13;6.97;;;;;;;14.31;100.00;98450.66;5039137;28;20509;-80
2021/08/24 02:45:52;;;;;;;15.15;7.20;;;;;;;14.35;100.00;98446.16;5021560;28;20057;-80
2021/08/24 02:48:21;;;;;;;14.43;7.85;;;;;;;14.37;100.00;98454.03;5021843;28;20095;-81
2021/08/24 02:50:49;;;;;;;14.02;7.05;;;;;;;14.37;100.00;98454.03;5039746;28;20343;-79
2021/08/24 02:53:16;;;;;;;15.93;7.10;;;;;;;14.42;100.00;98459.34;5040213;28;20058;-79
2021/08/24 02:55:43;;;;;;;12.43;7.38;;;;;;;14.43;100.00;98460.91;5026687;28;20049;-79
2021/08/24 02:58:09;;;;;;;19.88;7.90;;;;;;;14.31;100.00;98455.31;5039189;28;20050;-78
2021/08/24 03:00:36;;;;;;;17.92;7.50;;;;;;;14.22;100.00;98462.66;5038921;28;20049;-77
2021/08/24 03:03:03;;;;;;;16.27;7.90;;;;;;;14.29;100.00;98458.34;5036641;28;20608;-77
2021/08/24 03:05:29;;;;;;;14.40;7.68;;;;;;;14.36;100.00;98471.50;5037070;28;20513;-78
2021/08/24 03:07:57;;;;;;;17.80;8.00;;;;;;;14.33;100.00;98458.50;5036066;28;20490;-79
2021/08/24 03:10:25;;;;;;;17.13;8.23;;;;;;;14.40;100.00;98466.22;5035196;28;20054;-78
2021/08/24 03:13:21;;;;;;;18.48;8.63;;;;;;;14.31;100.00;98466.19;5017255;28;20045;-79
2021/08/24 03:16:20;;;;;;;17.55;8.55;;;;;;;14.41;100.00;98462.34;5019015;28;20045;-80
2021/08/24 03:18:55;;;;;;;19.02;8.82;;;;;;;14.43;100.00;98466.38;5036682;28;20049;-80
2021/08/24 03:21:26;;;;;;;18.63;8.50;;;;;;;14.44;100.00;98469.91;5036599;28;20045;-79
2021/08/24 03:23:54;;;;;;;25.90;9.70;;;;;;;14.44;100.00;98478.88;5018142;28;20041;-81
2021/08/24 03:26:34;;;;;;;16.33;8.95;;;;;;;14.55;100.00;98477.47;5036531;28;20045;-79
2021/08/24 03:29:07;;;;;;;22.00;8.70;;;;;;;14.48;100.00;98474.38;5015305;28;20436;-78
2021/08/24 03:31:38;;;;;;;16.77;9.18;;;;;;;14.42;100.00;98477.59;5028847;28;20559;-79
2021/08/24 03:34:06;;;;;;;19.23;9.77;;;;;;;14.44;100.00;98475.34;5020596;28;20045;-79
2021/08/24 03:36:34;;;;;;;18.45;9.43;;;;;;;14.54;100.00;98475.84;5034960;28;20480;-78
2021/08/24 03:39:00;;;;;;;18.55;8.95;;;;;;;14.59;100.00;98486.56;5000666;28;20049;-78
2021/08/24 03:41:31;;;;;;;20.15;9.57;;;;;;;14.47;100.00;98477.44;5037146;28;20047;-79
2021/08/24 03:43:58;;;;;;;21.08;9.82;;;;;;;14.45;100.00;98483.22;5038839;28;20057;-77
2021/08/24 03:46:25;;;;;;;16.08;9.13;;;;;;;14.35;100.00;98488.94;5046312;28;20049;-79
2021/08/24 03:48:51;;;;;;;20.73;9.30;;;;;;;14.35;100.00;98480.78;5037183;28;20057;-79
2021/08/24 03:51:18;;;;;;;18.00;9.48;;;;;;;14.35;100.00;98491.66;5020458;28;20038;-79
2021/08/24 03:53:44;;;;;;;19.98;9.52;;;;;;;14.23;100.00;98492.28;5025026;28;20108;-79
2021/08/24 03:56:11;;;;;;;14.77;9.30;;;;;;;14.37;100.00;98488.66;5037007;28;20041;-80
2021/08/24 03:58:38;;;;;;;20.38;10.07;;;;;;;14.24;100.00;98485.72;5034647;28;20469;-79
2021/08/24 04:01:11;;;;;;;20.83;9.35;;;;;;;14.28;100.00;98488.59;5016432;28;20042;-77
2021/08/24 04:03:38;;;;;;;21.48;10.25;;;;;;;14.21;100.00;98489.06;5015336;28;20045;-81
2021/08/24 04:06:04;;;;;;;20.17;9.18;;;;;;;14.39;100.00;98487.22;5015824;28;20074;-81
2021/08/24 04:08:31;;;;;;;21.05;9.35;;;;;;;14.13;100.00;98498.03;5015675;28;20045;-81
2021/08/24 04:11:00;;;;;;;21.38;8.85;;;;;;;14.43;100.00;98501.00;4998349;28;20414;-81
2021/08/24 04:13:27;;;;;;;19.05;8.68;;;;;;;14.44;100.00;98497.13;4995736;28;20054;-80
2021/08/24 04:15:54;;;;;;;19.05;9.00;;;;;;;14.33;100.00;98502.09;5012025;28;20573;-82
2021/08/24 04:18:20;;;;;;;14.95;8.90;;;;;;;14.37;100.00;98505.00;4996211;28;20046;-81
2021/08/24 04:20:47;;;;;;;19.25;9.15;;;;;;;14.20;100.00;98501.06;5012818;28;20053;-77
2021/08/24 04:23:21;;;;;;;13.70;8.25;;;;;;;14.41;100.00;98503.22;5012623;28;20041;-78
2021/08/24 04:25:47;;;;;;;17.05;8.10;;;;;;;14.42;100.00;98516.53;5014161;28;20045;-78
2021/08/24 04:28:14;;;;;;;17.38;8.38;;;;;;;14.29;100.00;98512.00;5012616;28;20045;-77
2021/08/24 04:30:41;;;;;;;13.40;7.63;;;;;;;14.24;100.00;98507.50;5001324;28;20068;-78
2021/08/24 04:33:07;;;;;;;15.13;7.60;;;;;;;14.29;100.00;98520.16;5015974;28;20048;-78
2021/08/24 04:35:34;;;;;;;14.73;8.38;;;;;;;14.27;100.00;98525.91;5014228;28;20132;-78
2021/08/24 04:38:00;;;;;;;12.20;7.57;;;;;;;14.23;100.00;98516.78;5012605;28;20038;-77
2021/08/24 04:40:30;;;;;;;15.20;8.52;;;;;;;14.21;100.00;98524.47;5016178;28;20052;-78
2021/08/24 04:42:56;;;;;;;15.88;8.30;;;;;;;14.12;100.00;98529.09;5031638;28;20052;-78
2021/08/24 04:45:23;;;;;;;16.50;8.45;;;;;;;14.21;100.00;98532.66;5038467;23;20046;-78
2021/08/24 04:47:50;;;;;;;18.05;9.05;;;;;;;14.42;100.00;98543.78;5033496;23;20056;-80
2021/08/24 04:50:17;;;;;;;15.35;8.32;;;;;;;14.38;100.00;98531.91;5044134;28;20083;-79
2021/08/24 04:52:44;;;;;;;17.55;9.43;;;;;;;14.42;100.00;98535.63;5009617;28;20046;-80
2021/08/24 04:55:11;;;;;;;14.55;9.35;;;;;;;14.46;100.00;98542.03;5017542;28;20515;-78
2021/08/24 04:57:37;;;;;;;21.67;9.50;;;;;;;14.41;100.00;98539.44;5006219;28;20544;-78
2021/08/24 05:00:05;;;;;;;19.00;9.18;;;;;;;14.50;100.00;98547.66;5035571;28;20021;-78
2021/08/24 05:02:33;;;;;;;12.82;8.05;;;;;;;14.54;100.00;98535.78;5014757;28;20037;-77
2021/08/24 05:05:00;;;;;;;14.10;8.18;;;;;;;14.59;100.00;98545.72;5029953;28;20038;-79
2021/08/24 05:07:29;;;;;;;14.65;8.25;;;;;;;14.61;100.00;98549.75;5013097;28;20111;-78
2021/08/24 05:09:55;;;;;;;16.50;7.53;;;;;;;14.50;100.00;98551.19;4993311;28;20065;-78
2021/08/24 05:12:22;;;;;;;13.27;8.10;;;;;;;14.68;100.00;98546.56;4992639;28;20034;-78
2021/08/24 05:14:49;;;;;;;15.77;7.97;;;;;;;14.53;100.00;98557.91;5012114;28;20054;-79
2021/08/24 05:17:16;;;;;;;15.95;7.90;;;;;;;14.65;100.00;98561.63;4979225;28;20128;-80
2021/08/24 05:19:51;;;;;;;13.57;8.23;;;;;;;14.46;100.00;98554.84;4998917;28;20129;-79
2021/08/24 05:22:17;;;;;;;13.48;7.70;;;;;;;14.56;100.00;98555.34;5008958;28;20053;-79
2021/08/24 05:24:44;;;;;;;16.08;8.40;;;;;;;14.37;100.00;98543.94;5033863;28;20048;-80
2021/08/24 05:27:10;;;;;;;18.77;8.75;;;;;;;14.41;100.00;98546.81;5033706;28;20047;-80
2021/08/24 05:29:37;;;;;;;17.02;8.68;;;;;;;14.50;100.00;98551.19;5016459;28;20055;-79
2021/08/24 05:32:04;;;;;;;16.52;10.55;;;;;;;14.22;100.00;98560.69;5033649;28;20045;-80
2021/08/24 05:34:31;;;;;;;16.35;10.95;;;;;;;14.29;100.00;98552.84;5017130;28;20053;-80
2021/08/24 05:36:57;;;;;;;15.27;10.32;;;;;;;14.40;100.00;98565.06;5036527;28;20037;-81
2021/08/24 05:39:24;;;;;;;21.50;11.68;;;;;;;14.43;100.00;98564.44;5017158;28;20489;-80
2021/08/24 05:41:51;;;;;;;17.30;11.52;;;;;;;14.31;100.00;98577.88;5016804;28;20396;-79
2021/08/24 05:44:18;;;;;;;17.80;11.82;;;;;;;14.34;100.00;98583.50;5015928;28;20100;-79
2021/08/24 05:46:44;;;;;;;19.65;11.15;;;;;;;14.42;100.00;98565.59;5016184;28;20052;-80
2021/08/24 05:49:11;;;;;;;20.13;12.07;;;;;;;14.41;100.00;98568.59;5016045;28;20057;-79
2021/08/24 05:51:39;;;;;;;20.85;11.73;;;;;;;14.29;100.00;98572.72;5033786;28;20041;-79
2021/08/24 05:54:06;;;;;;;17.88;11.75;;;;;;;14.42;100.00;98573.75;4999190;28;20057;-79
2021/08/24 05:56:33;;;;;;;21.33;13.70;;;;;;;14.49;100.00;98576.81;5016230;28;20045;-80
2021/08/24 05:59:00;;;;;;;20.40;12.85;;;;;;;14.64;100.00;98584.53;5015681;28;20121;-80
2021/08/24 06:01:29;;;;;;;21.17;11.98;;;;;;;14.59;100.00;98576.50;5032892;28;20053;-79
2021/08/24 06:04:00;;;;;;;21.77;11.82;;;;;;;14.53;100.00;98579.72;5032744;28;20067;-79
2021/08/24 06:06:39;;;;;;;18.52;10.50;;;;;;;14.48;100.00;98583.38;5016679;28;20045;-79
2021/08/24 06:09:10;;;;;;;16.17;10.57;;;;;;;14.69;100.00;98581.66;4998860;28;20045;-78
2021/08/24 06:11:42;;;;;;;15.10;9.75;;;;;;;14.60;100.00;98582.78;5033039;28;20606;-79
2021/08/24 06:14:09;;;;;;;17.30;9.63;;;;;;;14.71;100.00;98592.25;5016453;28;20096;-79
2021/08/24 06:16:38;;;;;;;19.95;9.88;;;;;;;14.55;100.00;98588.38;5034052;28;20049;-78
2021/08/24 06:19:05;;;;;;;17.45;9.00;;;;;;;14.73;100.00;98590.81;4999829;28;20099;-79
2021/08/24 06:21:32;;;;;;;17.25;9.93;;;;;;;14.51;100.00;98581.94;4999319;28;20415;-79
2021/08/24 06:23:58;;;;;;;16.90;9.80;;;;;;;14.51;100.00;98580.03;4999851;28;20037;-79
2021/08/24 06:26:25;;;;;;;16.55;10.18;;;;;;;14.63;100.00;98587.59;4999323;28;20053;-79
2021/08/24 06:28:51;;;;;;;21.25;9.98;;;;;;;14.71;100.00;98589.53;5014945;28;20056;-79
2021/08/24 06:31:21;;;;;;;21.75;9.30;;;;;;;14.51;100.00;98585.47;5032170;28;20126;-78
2021/08/24 06:33:48;;;;;;;19.40;9.38;;;;;;;14.68;100.00;98582.00;5015291;28;20045;-78
2021/08/24 06:36:15;;;;;;;21.02;11.15;;;;;;;14.67;100.00;98583.91;4998992;28;20046;-79
2021/08/24 06:38:43;;;;;;;20.10;9.88;;;;;;;14.80;100.00;98596.59;5015433;28;20045;-78
2021/08/24 06:41:11;;;;;;;17.15;9.40;;;;;;;14.97;100.00;98596.59;5014501;28;20120;-79
2021/08/24 06:43:38;;;;;;;15.60;9.45;;;;;;;14.94;100.00;98602.69;5014833;28;20497;-78
2021/08/24 06:46:05;;;;;;;16.88;9.20;;;;;;;15.09;100.00;98595.19;5032727;28;20050;-79
2021/08/24 06:48:35;;;;;;;20.58;9.02;;;;;;;15.12;100.00;98608.19;5014867;28;20049;-79
2021/08/24 06:51:02;;;;;;;17.95;9.07;;;;;;;14.95;100.00;98607.03;5001181;28;20046;-78
2021/08/24 06:53:29;;;;;;;17.60;9.27;;;;;;;15.22;100.00;98607.84;5018655;28;20217;-80
2021/08/24 06:55:55;;;;;;;19.38;9.15;;;;;;;15.28;100.00;98601.91;5018343;28;20042;-80
2021/08/24 06:58:22;;;;;;;18.95;8.70;;;;;;;15.26;100.00;98606.88;5016459;28;20046;-79
2021/08/24 07:00:49;;;;;;;14.27;8.07;;;;;;;15.44;100.00;98605.75;4999249;28;20077;-79
2021/08/24 07:03:19;;;;;;;18.13;7.70;;;;;;;15.27;100.00;98613.16;5015079;28;20045;-80
2021/08/24 07:05:49;;;;;;;13.27;7.25;;;;;;;15.28;100.00;98609.31;5032653;28;20077;-78
2021/08/24 07:08:17;;;;;;;12.73;7.20;;;;;;;15.34;100.00;98616.19;5015527;28;20059;-79
2021/08/24 07:10:45;;;;;;;12.48;7.50;;;;;;;15.07;100.00;98609.16;5017115;28;20041;-80
2021/08/24 07:13:11;;;;;;;14.70;7.05;;;;;;;15.23;100.00;98612.97;5025525;28;20034;-80
2021/08/24 07:15:38;;;;;;;12.18;6.07;;;;;;;15.32;100.00;98621.97;5010697;28;20045;-78
2021/08/24 07:18:06;;;;;;;11.73;5.57;;;;;;;15.34;100.00;98616.19;5024856;28;20101;-79
2021/08/24 07:20:33;;;;;;;15.48;6.85;;;;;;;15.46;100.00;98625.34;5041071;28;20045;-78
2021/08/24 07:23:01;;;;;;;18.27;6.38;;;;;;;15.29;100.00;98630.00;5016586;28;20042;-80
2021/08/24 07:25:31;;;;;;;11.02;5.93;;;;;;;15.25;100.00;98632.56;5015421;28;20049;-80
2021/08/24 07:27:57;;;;;;;12.60;6.50;;;;;;;15.45;100.00;98622.94;5015539;28;20049;-79
2021/08/24 07:30:24;;;;;;;11.88;6.75;;;;;;;15.56;100.00;98626.97;5033320;28;20408;-79
2021/08/24 07:32:52;;;;;;;11.57;7.18;;;;;;;15.38;100.00;98620.69;5016883;28;20096;-80
2021/08/24 07:35:19;;;;;;;12.55;7.05;;;;;;;15.19;100.00;98625.66;5034890;28;20050;-80
2021/08/24 07:37:46;;;;;;;9.60;6.95;;;;;;;15.35;100.00;98615.88;5014567;28;20060;-78
2021/08/24 07:40:15;;;;;;;13.77;7.60;;;;;;;15.41;100.00;98625.50;4998783;28;20058;-79
2021/08/24 07:42:42;;;;;;;11.30;7.93;;;;;;;15.26;100.00;98636.09;5036015;28;20648;-80
2021/08/24 07:45:08;;;;;;;12.98;8.40;;;;;;;15.39;100.00;98635.94;5015640;28;20054;-80
2021/08/24 07:47:35;;;;;;;16.55;8.60;;;;;;;15.33;100.00;98636.44;5032686;28;20064;-79
2021/08/24 07:50:03;;;;;;;15.82;9.55;;;;;;;15.34;100.00;98644.28;5032959;28;20050;-79
2021/08/24 07:52:30;;;;;;;14.25;9.98;;;;;;;15.24;100.00;98644.59;5014632;28;20094;-79
2021/08/24 07:54:56;;;;;;;16.88;9.20;;;;;;;15.41;100.00;98636.41;5023097;28;20544;-79
2021/08/24 07:57:23;;;;;;;15.63;9.25;;;;;;;15.38;100.00;98639.00;5040914;28;20072;-78
2021/08/24 07:59:52;;;;;;;13.60;8.73;;;;;;;15.40;100.00;98648.47;5020828;28;20065;-80
2021/08/24 08:02:19;;;;;;;14.10;7.90;;;;;;;15.49;100.00;98643.81;5015044;28;20052;-81
2021/08/24 08:04:46;;;;;;;12.60;7.55;;;;;;;15.39;100.00;98646.84;4999320;28;20045;-81
2021/08/24 08:07:14;;;;;;;16.92;7.97;;;;;;;15.51;100.00;98647.03;5038942;28;20038;-80
2021/08/24 08:09:43;;;;;;;14.63;7.78;;;;;;;15.59;100.00;98648.94;5038654;28;20045;-80
2021/08/24 08:12:11;;;;;;;13.57;7.45;;;;;;;15.75;100.00;98640.25;5014463;28;20496;-79
2021/08/24 08:14:38;;;;;;;11.20;7.15;;;;;;;15.82;100.00;98657.75;4996537;28;20401;-80
2021/08/24 08:17:05;;;;;;;11.18;7.85;;;;;;;15.94;100.00;98663.38;5029791;28;20438;-79
2021/08/24 08:19:32;;;;;;;13.43;7.38;;;;;;;15.93;100.00;98671.88;4997891;28;20057;-80
2021/08/24 08:21:58;;;;;;;15.65;8.20;;;;;;;15.91;100.00;98668.66;5013937;28;20047;-81
2021/08/24 08:24:25;;;;;;;11.90;7.95;;;;;;;15.49;100.00;98660.19;5031353;28;20045;-80
2021/08/24 08:26:52;;;;;;;11.93;7.75;;;;;;;15.20;100.00;98672.84;5030939;28;20050;-80
2021/08/24 08:29:19;;;;;;;13.30;8.05;;;;;;;15.55;100.00;98663.56;5029893;28;20111;-80
2021/08/24 08:31:48;;;;;;;13.88;8.27;;;;;;;15.90;100.00;98673.31;5013198;28;20068;-79
2021/08/24 08:34:24;;;;;;;13.75;7.72;;;;;;;16.05;100.00;98661.88;5013105;28;20037;-79
2021/08/24 08:36:52;;;;;;;12.93;7.38;;;;;;;16.31;100.00;98655.56;5012605;28;20427;-80
2021/08/24 08:39:19;;;;;;;15.02;5.95;;;;;;;16.28;100.00;98665.22;5031840;28;20061;-80
2021/08/24 08:42:16;;;;;;;9.18;5.80;;;;;;;16.18;100.00;98679.22;5014538;28;20069;-79
2021/08/24 08:44:52;;;;;;;;;;;;;;;16.39;100.00;98682.06;5002697;28;20385;-80
2021/08/24 08:47:34;;;;;;;11.75;5.70;;;;;;;16.28;100.00;98676.16;5034341;28;20015;-80
2021/08/24 08:50:10;;;;;;;14.23;5.82;;;;;;;16.50;100.00;98673.16;5013999;28;20052;-81
2021/08/24 08:52:41;;;;;;;11.35;6.20;;;;;;;16.40;100.00;98670.78;5014500;28;20037;-80
2021/08/24 08:55:33;;;;;;;11.38;6.65;;;;;;;16.62;100.00;98669.78;5013216;28;20346;-79
2021/08/24 08:58:32;;;;;;;11.07;5.78;;;;;;;16.60;100.00;98674.75;5031336;28;20059;-79
2021/08/24 09:01:26;;;;;;;10.43;5.57;;;;;;;16.70;100.00;98664.25;5022111;28;20053;-81
2021/08/24 09:04:26;;;;;;;9.65;5.57;;;;;;;16.50;100.00;98662.22;5014700;28;20049;-80
2021/08/24 09:07:22;;;;;;;9.57;5.85;;;;;;;16.75;100.00;98674.19;4996268;28;20422;-80
2021/08/24 09:10:10;;;;;;;13.55;5.30;;;;;;;16.67;100.00;98661.38;5006633;28;20056;-80
2021/08/24 09:13:03;;;;;;;8.05;5.10;;;;;;;16.40;100.00;98675.44;5008866;28;20042;-81
2021/08/24 09:15:45;;;;;;;8.50;5.30;;;;;;;16.58;100.00;98677.00;5004099;28;20050;-80
2021/08/24 09:18:23;;;;;;;9.68;5.05;;;;;;;16.98;100.00;98672.00;5046858;28;20101;-81
2021/08/24 09:21:00;;;;;;;8.65;4.78;;;;;;;16.90;100.00;98665.44;5035359;28;20136;-80
2021/08/24 09:23:30;;;;;;;10.27;5.38;;;;;;;17.04;100.00;98689.81;5036907;28;20052;-79
2021/08/24 09:26:53;;;;;;;12.15;5.85;;;;;;;16.66;100.00;98670.72;5030349;28;20045;-81
2021/08/24 09:29:34;;;;;;;7.78;4.68;;;;;;;16.62;100.00;98673.28;5006528;28;20060;-81
2021/08/24 09:32:09;;;;;;;9.35;5.80;;;;;;;16.87;100.00;98679.78;5013669;28;20046;-80
2021/08/24 09:34:47;;;;;;;9.95;5.07;;;;;;;16.82;100.00;98669.03;5014002;28;20128;-79
2021/08/24 09:37:18;;;;;;;8.82;4.88;;;;;;;17.03;100.00;98693.69;5013239;28;20080;-80
2021/08/24 09:40:06;;;;;;;12.57;4.80;;;;;;;17.36;100.00;98697.34;5031707;28;20045;-80
2021/08/24 09:42:35;;;;;;;11.55;5.10;;;;;;;16.65;100.00;98689.03;5030760;28;20069;-80
2021/08/24 09:45:18;;;;;;;13.18;5.78;;;;;;;16.60;100.00;98688.41;5032234;28;20049;-80
2021/08/24 09:47:57;;;;;;;10.52;6.07;;;;;;;16.73;100.00;98693.69;5032682;28;20064;-81
2021/08/24 09:50:31;;;;;;;12.35;6.50;;;;;;;16.40;100.00;98686.38;5034793;28;20071;-81
2021/08/24 09:52:58;;;;;;;13.45;6.85;;;;;;;16.52;100.00;98695.53;5014810;28;20048;-81
2021/08/24 09:55:28;;;;;;;8.90;5.05;;;;;;;16.70;100.00;98701.72;4997349;28;20053;-81
2021/08/24 09:58:00;;;;;;;8.90;5.45;;;;;;;16.64;100.00;98700.31;4997937;28;20047;-81
2021/08/24 10:00:57;;;;;;;10.18;5.55;;;;;;;16.47;100.00;98705.81;5032737;28;20052;-82
2021/08/24 10:03:39;;;;;;;12.95;5.50;;;;;;;16.32;100.00;98703.59;5016545;28;20095;-81
2021/08/24 10:06:20;;;;;;;10.93;5.90;;;;;;;16.41;100.00;98705.19;5016713;28;20041;-81
2021/08/24 10:08:54;;;;;;;10.05;6.25;;;;;;;16.45;100.00;98699.88;5033949;28;20052;-80
2021/08/24 10:11:33;;;;;;;9.02;5.78;;;;;;;16.60;100.00;98700.16;5019569;28;20105;-82
2021/08/24 10:14:13;;;;;;;9.10;5.47;;;;;;;16.88;100.00;98705.97;5033019;28;20037;-80
2021/08/24 10:16:42;;;;;;;10.30;5.07;;;;;;;17.07;100.00;98703.63;5015925;28;20088;-80
2021/08/24 10:19:32;;;;;;;12.05;5.32;;;;;;;16.97;100.00;98706.75;4999279;28;20057;-80
2021/08/24 10:22:02;;;;;;;11.15;5.53;;;;;;;17.46;100.00;98702.41;5016528;28;20525;-79
2021/08/24 10:24:38;;;;;;;10.82;5.10;;;;;;;17.94;100.00;98697.19;4999791;28;20049;-79
2021/08/24 10:27:22;;;;;;;10.50;4.57;;;;;;;18.07;100.00;98698.03;5018694;28;20050;-81
2021/08/24 10:29:56;;;;;;;9.48;4.75;;;;;;;18.21;100.00;98712.25;5015042;28;20087;-80
2021/08/24 10:33:05;;;;;;;;;;;;;;;;;;;;;
2021/08/24 10:35:42;;;;;;;9.43;4.35;;;;;;;17.94;100.00;98696.38;5037864;28;20045;-80
2021/08/24 10:38:17;;;;;;;10.95;4.70;;;;;;;17.93;100.00;98712.03;5002317;28;20053;-81
2021/08/24 10:40:45;;;;;;;6.73;3.90;;;;;;;17.70;100.00;98723.69;5001101;28;20046;-79
2021/08/24 10:43:23;;;;;;;7.50;4.55;;;;;;;17.01;100.00;98728.78;5015110;28;20037;-80
2021/08/24 10:46:00;;;;;;;8.48;4.68;;;;;;;16.83;100.00;98724.53;5032962;28;20045;-80
2021/08/24 10:48:32;;;;;;;7.38;4.30;;;;;;;17.55;100.00;98705.13;5026316;23;20096;-80
2021/08/24 10:51:23;;;;;;;8.95;4.88;;;;;;;18.30;100.00;98712.16;5028779;28;20056;-81
2021/08/24 10:54:21;;;;;;;7.97;4.35;;;;;;;18.20;100.00;98712.56;5026993;28;20030;-82
2021/08/24 10:57:22;;;;;;;7.05;3.83;;;;;;;18.49;100.00;98717.94;5009787;28;20046;-82
2021/08/24 11:00:04;;;;;;;7.03;4.30;;;;;;;18.24;100.00;98708.81;5009976;28;20068;-81
2021/08/24 11:03:00;;;;;;;9.95;4.10;;;;;;;18.26;100.00;98716.69;5024547;28;20248;-81
2021/08/24 11:05:47;;;;;;;9.88;3.85;;;;;;;18.00;100.00;98722.44;5012708;28;20087;-82
2021/08/24 11:08:36;;;;;;;7.22;3.50;;;;;;;18.09;100.00;98723.19;5026230;28;20046;-81
2021/08/24 11:11:42;;;;;;;12.65;3.50;;;;;;;18.35;100.00;98717.44;5026252;28;20046;-81
2021/08/24 11:14:34;;;;;;;10.95;3.80;;;;;;;18.14;100.00;98722.16;5025498;28;20042;-80
2021/08/24 11:17:19;;;;;;;8.45;3.88;;;;;;;18.19;100.00;98724.69;5026225;28;20041;-82
2021/08/24 11:20:02;;;;;;;8.80;3.72;;;;;;;17.61;100.00;98726.47;5025251;28;20125;-80
2021/08/24 11:22:41;;;;;;;11.57;3.80;;;;;;;17.74;100.00;98739.09;5026957;28;20076;-80
2021/08/24 11:25:15;;;;;;;9.20;4.05;;;;;;;17.70;100.00;98734.63;5024800;28;20042;-81
2021/08/24 11:27:56;;;;;;;8.57;4.30;;;;;;;17.59;100.00;98736.16;5008038;28;20046;-82
2021/08/24 11:30:39;;;;;;;7.63;4.00;;;;;;;17.57;100.00;98746.66;5028445;28;20052;-81
2021/08/24 11:33:17;;;;;;;13.50;4.38;;;;;;;17.49;100.00;98747.47;5024197;28;20068;-81
2021/08/24 11:36:20;;;;;;;9.13;3.95;;;;;;;17.18;100.00;98750.56;5021652;28;20057;-79
2021/08/24 11:38:58;;;;;;;8.57;3.45;;;;;;;17.26;100.00;98739.59;4980418;28;20062;-81
2021/08/24 11:41:25;;;;;;;8.38;3.78;;;;;;;17.77;100.00;98754.06;5021428;28;20411;-80
2021/08/24 11:44:01;;;;;;;10.13;4.10;;;;;;;18.00;100.00;98736.13;5019744;28;20074;-80
2021/08/24 11:46:45;;;;;;;8.48;3.65;;;;;;;17.56;100.00;98745.03;5020499;28;20045;-81